Time;durP1;ratioP1;P1;durP2;ratioP2;P2;SDS_P1;SDS_P2;PMS_P1;PMS_P2;Temp;Humidity;BMP_temperature;BMP_pressure;BME280_temperature;BME280_humidity;BME280_pressure;Samples;Min_cycle;Max_cycle;Signal;HPM_P1;HPM_P2
2023/01/29 00:00:50;;;;;;;8.43;6.40;;;2.00;99.90;;;;;;6279698;28;20043;-81
2023/01/29 00:03:52;;;;;;;10.05;6.82;;;2.00;99.90;;;;;;6253568;28;20045;-81
2023/01/29 00:06:54;;;;;;;7.95;6.30;;;2.00;99.90;;;;;;6281340;28;20535;-80
2023/01/29 00:09:56;;;;;;;8.48;6.28;;;1.90;99.90;;;;;;6283003;28;20045;-81
2023/01/29 00:12:59;;;;;;;7.43;6.63;;;1.90;99.90;;;;;;6293418;28;20035;-79
2023/01/29 00:16:01;;;;;;;9.25;7.55;;;1.90;99.90;;;;;;6283757;28;20040;-81
2023/01/29 00:19:03;;;;;;;9.40;6.85;;;1.90;99.90;;;;;;6279616;28;20130;-82
2023/01/29 00:22:05;;;;;;;14.73;6.60;;;1.90;99.90;;;;;;6276755;28;20052;-82
2023/01/29 00:25:08;;;;;;;10.13;6.88;;;1.90;99.90;;;;;;6275611;28;20044;-82
2023/01/29 00:28:12;;;;;;;13.60;6.43;;;1.80;99.90;;;;;;6274739;28;20049;-82
2023/01/29 00:31:16;;;;;;;8.90;7.00;;;1.80;99.90;;;;;;6275665;28;20059;-82
2023/01/29 00:34:17;;;;;;;8.63;6.70;;;1.80;99.90;;;;;;6277533;28;20053;-81
2023/01/29 00:37:19;;;;;;;7.97;5.95;;;1.80;99.90;;;;;;6280196;28;20045;-82
2023/01/29 00:40:21;;;;;;;7.88;6.32;;;1.80;99.90;;;;;;6280436;28;20049;-82
2023/01/29 00:46:44;;;;;;;10.80;6.97;;;1.80;99.90;;;;;;6286540;28;20092;-80
2023/01/29 00:49:46;;;;;;;9.75;7.22;;;1.80;99.90;;;;;;6287921;28;20052;-80
2023/01/29 00:52:50;;;;;;;9.50;7.18;;;1.80;99.90;;;;;;6288519;28;20688;-80
2023/01/29 00:55:52;;;;;;;10.50;8.10;;;1.80;99.90;;;;;;6285184;28;20427;-80
2023/01/29 00:58:55;;;;;;;10.18;7.38;;;1.80;99.90;;;;;;6284176;28;20045;-81
2023/01/29 01:05:17;;;;;;;11.20;7.72;;;1.80;99.90;;;;;;6284006;28;20116;-80
2023/01/29 01:11:38;;;;;;;11.02;7.75;;;1.80;99.90;;;;;;6284379;28;20037;-80
2023/01/29 01:14:42;;;;;;;9.00;6.88;;;1.80;99.90;;;;;;6283597;28;20397;-80
2023/01/29 01:17:43;;;;;;;10.40;7.50;;;1.70;99.90;;;;;;6285083;28;20056;-80
2023/01/29 01:20:50;;;;;;;10.80;7.10;;;1.70;99.90;;;;;;6284783;28;20048;-80
2023/01/29 01:23:52;;;;;;;11.07;8.48;;;1.70;99.90;;;;;;6284004;28;20065;-80
2023/01/29 01:26:54;;;;;;;8.18;6.97;;;1.70;99.90;;;;;;6285133;28;20128;-80
2023/01/29 01:29:57;;;;;;;11.68;7.60;;;1.70;99.90;;;;;;6287715;28;20072;-80
2023/01/29 01:32:58;;;;;;;10.07;7.07;;;1.70;99.90;;;;;;6286984;28;20041;-80
2023/01/29 01:36:01;;;;;;;9.75;7.70;;;1.60;99.90;;;;;;6287887;28;20528;-80
2023/01/29 01:39:03;;;;;;;14.10;7.10;;;1.60;99.90;;;;;;6283366;28;20060;-80
2023/01/29 01:42:09;;;;;;;11.50;9.18;;;1.60;99.90;;;;;;6284299;28;20053;-80
2023/01/29 01:45:20;;;;;;;9.85;7.45;;;1.60;99.90;;;;;;6284816;28;20420;-80
2023/01/29 01:48:24;;;;;;;11.38;9.23;;;1.60;99.90;;;;;;6283810;28;20052;-80
2023/01/29 01:51:28;;;;;;;12.13;8.65;;;1.60;99.90;;;;;;6285598;28;20047;-80
2023/01/29 01:54:32;;;;;;;10.02;7.75;;;1.60;99.90;;;;;;6286115;28;20059;-80
2023/01/29 01:57:34;;;;;;;11.52;7.88;;;1.60;99.90;;;;;;6284111;28;20432;-80
2023/01/29 02:00:37;;;;;;;9.98;7.95;;;1.50;99.90;;;;;;6284856;28;20056;-80
2023/01/29 02:10:27;;;;;;;8.95;6.57;;;1.50;99.90;;;;;;6277007;28;20071;-81
2023/01/29 02:13:29;;;;;;;9.23;7.03;;;1.40;99.90;;;;;;6277256;28;20045;-81
2023/01/29 02:16:34;;;;;;;10.43;7.38;;;1.40;99.90;;;;;;6277327;28;20041;-82
2023/01/29 02:19:47;;;;;;;14.20;7.95;;;1.40;99.90;;;;;;6277777;28;20044;-82
2023/01/29 02:23:08;;;;;;;8.35;7.13;;;1.40;99.90;;;;;;6277988;28;20049;-81
2023/01/29 02:26:29;;;;;;;12.25;6.88;;;1.40;99.90;;;;;;6279268;28;20500;-81
2023/01/29 02:29:41;;;;;;;11.13;7.90;;;1.40;99.90;;;;;;6279704;28;20041;-81
2023/01/29 02:32:53;;;;;;;8.07;7.28;;;1.40;99.90;;;;;;6279765;28;20049;-81
2023/01/29 02:36:02;;;;;;;8.40;6.25;;;1.40;99.90;;;;;;6279537;28;20052;-81
2023/01/29 02:39:14;;;;;;;11.38;7.38;;;1.40;99.90;;;;;;6278736;28;20044;-82
2023/01/29 02:42:26;;;;;;;14.38;8.90;;;1.40;99.90;;;;;;6276758;28;20048;-80
2023/01/29 02:45:35;;;;;;;10.18;6.85;;;1.40;99.90;;;;;;6275066;28;20052;-80
2023/01/29 02:48:41;;;;;;;11.30;7.75;;;1.40;99.90;;;;;;6275021;28;20486;-80
2023/01/29 02:51:48;;;;;;;11.10;7.57;;;1.40;99.90;;;;;;6275188;28;20044;-80
2023/01/29 02:54:53;;;;;;;13.00;7.32;;;1.40;99.90;;;;;;6274116;28;20049;-79
2023/01/29 02:58:00;;;;;;;11.68;7.57;;;1.40;99.90;;;;;;6273887;28;20049;-80
2023/01/29 03:01:09;;;;;;;11.43;7.22;;;1.30;99.90;;;;;;6274933;28;20045;-79
2023/01/29 03:04:16;;;;;;;9.27;7.95;;;1.30;99.90;;;;;;6273993;28;20041;-80
2023/01/29 03:07:41;;;;;;;10.13;7.43;;;1.30;99.90;;;;;;6275437;28;20056;-81
2023/01/29 03:10:48;;;;;;;12.05;7.82;;;1.30;99.90;;;;;;6273936;28;20172;-80
2023/01/29 03:13:55;;;;;;;9.20;7.78;;;1.30;99.90;;;;;;6275667;28;20053;-79
2023/01/29 03:16:59;;;;;;;11.60;5.90;;;1.30;99.90;;;;;;6273755;28;20061;-79
2023/01/29 03:20:03;;;;;;;11.65;8.10;;;1.30;99.90;;;;;;6273339;28;20044;-79
2023/01/29 03:23:11;;;;;;;11.60;8.90;;;1.30;99.90;;;;;;6273752;28;20056;-79
2023/01/29 03:32:59;;;;;;;10.90;7.88;;;1.20;99.90;;;;;;6272864;28;20053;-79
2023/01/29 03:36:06;;;;;;;10.00;7.87;;;1.20;99.90;;;;;;6273014;28;20053;-80
2023/01/29 03:39:10;;;;;;;10.25;7.13;;;1.20;99.90;;;;;;6273175;28;20090;-80
2023/01/29 03:42:18;;;;;;;10.20;8.30;;;1.20;99.90;;;;;;6273506;28;20045;-79
2023/01/29 03:45:27;;;;;;;12.00;8.50;;;1.10;99.90;;;;;;6273700;28;20052;-79
2023/01/29 03:48:35;;;;;;;9.33;7.33;;;1.10;99.90;;;;;;6273234;28;20575;-78
2023/01/29 03:51:45;;;;;;;12.82;7.20;;;1.10;99.90;;;;;;6274309;28;20041;-79
2023/01/29 03:54:56;;;;;;;8.93;7.05;;;1.00;99.90;;;;;;6274361;28;20056;-79
2023/01/29 03:58:00;;;;;;;8.70;6.82;;;0.90;99.90;;;;;;6273259;28;20049;-79
2023/01/29 04:01:04;;;;;;;13.82;7.50;;;0.90;99.90;;;;;;6278463;28;20049;-80
2023/01/29 04:04:14;;;;;;;10.63;7.03;;;0.90;99.90;;;;;;6284206;28;20041;-80
2023/01/29 04:07:22;;;;;;;10.43;7.63;;;0.90;99.90;;;;;;6284251;28;20056;-79
2023/01/29 04:10:26;;;;;;;;;;;0.90;99.90;;;;;;6289568;28;20068;-80
2023/01/29 04:13:32;;;;;;;7.57;6.03;;;0.90;99.90;;;;;;6290127;28;19925;-80
2023/01/29 04:16:37;;;;;;;10.53;6.03;;;0.90;99.90;;;;;;6290147;28;20049;-81
2023/01/29 04:19:41;;;;;;;9.27;6.53;;;0.80;99.90;;;;;;6289734;28;20091;-81
2023/01/29 04:22:45;;;;;;;7.33;6.13;;;0.70;99.90;;;;;;6290816;28;20059;-80
2023/01/29 04:25:57;;;;;;;10.93;6.30;;;0.70;99.90;;;;;;6279964;28;20504;-78
2023/01/29 04:29:15;;;;;;;8.77;6.03;;;0.70;99.90;;;;;;6276406;28;20037;-78
2023/01/29 04:32:26;;;;;;;10.73;7.38;;;0.70;99.90;;;;;;6277876;28;20056;-78
2023/01/29 04:35:35;;;;;;;8.07;6.63;;;0.80;99.90;;;;;;6275735;28;20041;-78
2023/01/29 04:38:50;;;;;;;8.43;6.73;;;0.80;99.90;;;;;;6276260;28;20496;-78
2023/01/29 04:41:56;;;;;;;14.70;7.20;;;0.80;99.90;;;;;;6276064;28;20067;-79
2023/01/29 04:45:03;;;;;;;7.43;5.80;;;0.80;99.90;;;;;;6276136;28;20052;-78
2023/01/29 04:48:15;;;;;;;15.55;8.57;;;0.90;99.90;;;;;;6275844;28;20049;-79
2023/01/29 04:51:24;;;;;;;14.87;7.57;;;0.90;99.90;;;;;;6275889;28;20044;-78
2023/01/29 04:54:36;;;;;;;12.53;8.07;;;0.90;99.90;;;;;;6276864;28;20044;-79
2023/01/29 04:57:47;;;;;;;9.73;6.30;;;0.90;99.90;;;;;;6276371;28;20053;-79
2023/01/29 05:00:53;;;;;;;13.73;7.80;;;0.90;99.90;;;;;;6275782;28;20045;-79
2023/01/29 05:03:55;;;;;;;12.70;7.63;;;0.90;99.90;;;;;;6276146;28;20052;-79
2023/01/29 05:07:01;;;;;;;11.60;7.63;;;1.00;99.90;;;;;;6276458;28;20041;-79
2023/01/29 05:10:04;;;;;;;11.60;7.63;;;1.00;99.90;;;;;;6276345;28;20056;-78
2023/01/29 05:13:11;;;;;;;11.53;7.80;;;1.00;99.90;;;;;;6276031;28;20052;-79
2023/01/29 05:16:17;;;;;;;8.35;6.75;;;1.00;99.90;;;;;;6274875;28;20049;-78
2023/01/29 05:19:18;;;;;;;9.52;6.40;;;1.10;99.90;;;;;;6275277;28;20048;-79
2023/01/29 05:22:22;;;;;;;10.48;7.55;;;1.10;99.90;;;;;;6276519;28;20060;-79
2023/01/29 05:25:25;;;;;;;12.43;7.70;;;1.10;99.90;;;;;;6275777;28;20048;-79
2023/01/29 05:28:26;;;;;;;10.77;7.95;;;1.10;99.90;;;;;;6275754;28;20110;-80
2023/01/29 05:31:28;;;;;;;11.10;6.80;;;1.10;99.90;;;;;;6289347;28;20052;-78
2023/01/29 05:34:29;;;;;;;17.73;12.60;;;1.10;99.90;;;;;;6301678;28;20055;-78
2023/01/29 05:37:32;;;;;;;14.32;8.55;;;1.10;99.90;;;;;;6301352;28;20045;-77
2023/01/29 05:40:34;;;;;;;7.93;6.68;;;1.10;99.90;;;;;;6302192;28;20048;-78
2023/01/29 05:43:36;;;;;;;7.75;6.97;;;1.10;99.90;;;;;;6303250;28;20044;-78
2023/01/29 05:46:38;;;;;;;13.70;8.38;;;1.10;99.90;;;;;;6302260;28;20059;-78
2023/01/29 05:49:39;;;;;;;9.90;7.13;;;1.10;99.90;;;;;;6301124;28;20511;-78
2023/01/29 05:52:43;;;;;;;19.77;10.40;;;1.00;99.90;;;;;;6300822;28;20055;-78
2023/01/29 05:55:45;;;;;;;8.70;6.53;;;1.10;99.90;;;;;;6300893;28;20053;-78
2023/01/29 05:58:47;;;;;;;8.57;6.23;;;1.00;99.90;;;;;;6300548;28;20059;-78
2023/01/29 06:01:48;;;;;;;10.73;8.40;;;1.00;99.90;;;;;;6301566;28;20053;-78
2023/01/29 06:04:51;;;;;;;10.33;6.33;;;1.00;99.90;;;;;;6299952;28;20056;-78
2023/01/29 06:07:55;;;;;;;9.20;7.00;;;1.10;99.90;;;;;;6283652;28;20586;-78
2023/01/29 06:10:56;;;;;;;9.02;6.30;;;1.00;99.90;;;;;;6274549;28;20045;-77
2023/01/29 06:13:58;;;;;;;9.80;6.67;;;1.00;99.90;;;;;;6275749;28;20519;-78
2023/01/29 06:17:00;;;;;;;7.70;6.47;;;1.00;99.90;;;;;;6274726;28;20053;-78
2023/01/29 06:20:02;;;;;;;10.07;7.93;;;1.10;99.90;;;;;;6276123;28;20041;-78
2023/01/29 06:23:05;;;;;;;11.43;7.07;;;1.10;99.90;;;;;;6276709;28;20045;-78
2023/01/29 06:26:08;;;;;;;9.33;6.97;;;1.10;99.90;;;;;;6276500;28;20459;-78
2023/01/29 06:29:10;;;;;;;11.77;8.97;;;1.10;99.90;;;;;;6274429;28;20056;-78
2023/01/29 06:32:11;;;;;;;15.10;9.80;;;1.10;99.90;;;;;;6273288;28;20051;-78
2023/01/29 06:35:13;;;;;;;15.97;8.37;;;1.10;99.90;;;;;;6275103;28;20048;-78
2023/01/29 06:38:16;;;;;;;10.07;7.60;;;1.10;99.90;;;;;;6274684;28;20060;-77
2023/01/29 06:41:21;;;;;;;11.40;8.03;;;1.10;99.90;;;;;;6274917;28;20071;-78
2023/01/29 06:44:23;;;;;;;11.70;8.48;;;1.20;99.90;;;;;;6274768;28;20059;-78
2023/01/29 06:47:26;;;;;;;14.18;7.78;;;1.10;99.90;;;;;;6274641;28;20041;-78
2023/01/29 06:50:28;;;;;;;11.48;8.23;;;1.20;99.90;;;;;;6274870;28;20056;-81
2023/01/29 06:53:32;;;;;;;8.70;7.45;;;1.20;99.90;;;;;;6277890;28;20045;-81
2023/01/29 06:56:34;;;;;;;10.03;8.33;;;1.20;99.90;;;;;;6278333;28;20049;-80
2023/01/29 06:59:36;;;;;;;11.00;7.17;;;1.20;99.90;;;;;;6278906;28;20443;-81
2023/01/29 07:02:38;;;;;;;8.57;7.68;;;1.20;99.90;;;;;;6275143;28;20417;-78
2023/01/29 07:05:39;;;;;;;10.10;7.15;;;1.20;99.90;;;;;;6274474;28;20056;-79
2023/01/29 07:08:42;;;;;;;11.93;7.35;;;1.20;99.90;;;;;;6275606;28;20041;-78
2023/01/29 07:11:44;;;;;;;14.27;7.30;;;1.20;99.90;;;;;;6274562;28;20049;-78
2023/01/29 07:14:46;;;;;;;9.97;8.50;;;1.20;99.90;;;;;;6274239;28;20048;-78
2023/01/29 07:17:58;;;;;;;13.23;7.73;;;1.20;99.90;;;;;;6274204;28;20057;-78
2023/01/29 07:21:05;;;;;;;14.73;10.23;;;1.20;99.90;;;;;;6274295;28;20523;-79
2023/01/29 07:24:08;;;;;;;8.83;7.93;;;1.20;99.90;;;;;;6274602;28;20508;-79
2023/01/29 07:27:10;;;;;;;13.43;9.18;;;1.30;99.90;;;;;;6276298;28;20044;-80
2023/01/29 07:30:13;;;;;;;9.98;6.97;;;1.30;99.90;;;;;;6280360;28;20048;-80
2023/01/29 07:33:14;;;;;;;10.57;7.72;;;1.30;99.90;;;;;;6279595;28;20055;-80
2023/01/29 07:36:16;;;;;;;11.93;6.65;;;1.30;99.90;;;;;;6284943;28;20047;-80
2023/01/29 07:39:19;;;;;;;6.78;5.55;;;1.30;99.90;;;;;;6278291;28;20041;-80
2023/01/29 07:42:21;;;;;;;7.47;6.75;;;1.20;99.90;;;;;;6275960;28;20176;-80
2023/01/29 07:45:22;;;;;;;11.82;8.75;;;1.10;99.90;;;;;;6275672;28;20060;-80
2023/01/29 07:48:24;;;;;;;8.43;6.47;;;1.20;99.90;;;;;;6275557;28;20052;-80
2023/01/29 07:51:26;;;;;;;105.38;49.55;;;1.20;99.90;;;;;;6275245;28;20051;-80
2023/01/29 07:54:29;;;;;;;109.15;44.95;;;1.30;99.90;;;;;;6276678;28;20045;-80
2023/01/29 07:57:30;;;;;;;35.47;16.92;;;1.40;99.90;;;;;;6276919;28;20052;-80
2023/01/29 08:00:32;;;;;;;22.60;10.98;;;1.40;99.90;;;;;;6279589;28;20095;-80
2023/01/29 08:03:34;;;;;;;12.85;7.93;;;1.50;99.90;;;;;;6279251;28;20052;-80
2023/01/29 08:06:36;;;;;;;11.00;7.53;;;1.60;99.90;;;;;;6278798;28;20049;-78
2023/01/29 08:09:39;;;;;;;10.45;7.43;;;1.60;99.90;;;;;;6251685;28;20045;-79
2023/01/29 08:12:40;;;;;;;7.70;6.72;;;1.60;99.90;;;;;;6254356;28;20046;-79
2023/01/29 08:15:44;;;;;;;13.05;6.45;;;1.70;99.90;;;;;;6239843;28;20056;-79
2023/01/29 08:18:47;;;;;;;42.42;18.80;;;1.70;99.90;;;;;;6250888;28;20497;-78
2023/01/29 08:21:48;;;;;;;76.93;31.88;;;1.80;99.90;;;;;;6249355;28;20049;-78
2023/01/29 08:24:51;;;;;;;12.10;7.95;;;1.80;99.90;;;;;;6248630;28;20049;-78
2023/01/29 08:27:53;;;;;;;14.48;9.50;;;1.90;99.90;;;;;;6247934;28;20429;-77
2023/01/29 08:30:55;;;;;;;13.00;7.60;;;1.90;99.90;;;;;;6247889;28;20061;-78
2023/01/29 08:33:57;;;;;;;18.25;10.05;;;2.00;99.90;;;;;;6247675;28;20049;-79
2023/01/29 08:36:59;;;;;;;14.35;8.05;;;2.30;99.90;;;;;;6247756;28;20452;-78
2023/01/29 08:40:02;;;;;;;10.50;7.60;;;2.40;99.90;;;;;;6247772;28;20052;-78
2023/01/29 08:43:06;;;;;;;12.23;7.07;;;2.40;99.90;;;;;;6247389;28;20042;-78
2023/01/29 08:46:08;;;;;;;12.15;8.63;;;2.40;99.90;;;;;;6247396;28;20060;-78
2023/01/29 08:49:10;;;;;;;10.82;7.68;;;2.50;99.90;;;;;;6247412;28;20394;-79
2023/01/29 08:52:11;;;;;;;13.02;8.50;;;2.60;99.90;;;;;;6247252;28;20046;-78
2023/01/29 08:55:14;;;;;;;31.65;18.73;;;2.60;99.90;;;;;;6249166;28;20041;-78
2023/01/29 08:58:16;;;;;;;50.25;35.65;;;2.70;99.90;;;;;;6252430;28;20049;-80
2023/01/29 09:01:18;;;;;;;224.55;135.77;;;2.80;99.90;;;;;;6251977;28;20444;-80
2023/01/29 09:04:19;;;;;;;66.28;42.03;;;3.00;99.90;;;;;;6252177;28;20046;-80
2023/01/29 09:07:21;;;;;;;30.05;26.35;;;3.10;99.90;;;;;;6252478;28;20041;-80
2023/01/29 09:10:24;;;;;;;15.13;11.30;;;3.20;99.90;;;;;;6252249;28;20457;-80
2023/01/29 09:13:26;;;;;;;16.08;12.90;;;3.30;99.90;;;;;;6252149;28;20049;-80
2023/01/29 09:16:28;;;;;;;17.95;13.75;;;3.40;99.90;;;;;;6251621;28;20532;-81
2023/01/29 09:19:29;;;;;;;10.70;9.70;;;3.50;99.90;;;;;;6253656;28;20049;-81
2023/01/29 09:22:31;;;;;;;11.00;7.90;;;3.60;99.90;;;;;;6253039;28;20045;-79
2023/01/29 09:25:35;;;;;;;15.68;7.68;;;3.80;99.90;;;;;;6253122;28;20437;-79
2023/01/29 09:28:36;;;;;;;10.68;7.90;;;3.90;99.90;;;;;;6301036;28;20048;-79
2023/01/29 09:31:38;;;;;;;7.85;6.93;;;4.00;99.90;;;;;;6302297;28;20045;-79
2023/01/29 09:34:40;;;;;;;9.95;7.88;;;4.10;99.90;;;;;;6301751;28;20048;-78
2023/01/29 09:37:41;;;;;;;9.73;7.00;;;4.30;99.90;;;;;;6299992;28;20055;-80
2023/01/29 09:40:55;;;;;;;9.65;7.93;;;4.50;99.90;;;;;;6278719;28;20041;-79
2023/01/29 09:44:00;;;;;;;7.95;6.30;;;4.60;99.90;;;;;;6289674;28;20049;-79
2023/01/29 09:47:04;;;;;;;9.75;7.90;;;4.70;99.90;;;;;;6278994;28;20045;-79
2023/01/29 09:50:13;;;;;;;7.68;6.78;;;4.80;99.90;;;;;;6280969;28;20364;-79
2023/01/29 09:53:19;;;;;;;7.00;6.18;;;5.00;99.90;;;;;;6281057;28;20091;-80
2023/01/29 09:56:27;;;;;;;11.00;6.53;;;5.30;99.90;;;;;;6280814;28;20044;-78
2023/01/29 09:59:30;;;;;;;;;;;5.60;99.90;;;;;;6279989;28;20552;-80
2023/01/29 10:02:53;;;;;;;8.80;7.25;;;5.90;99.90;;;;;;6283479;28;20341;-81
2023/01/29 10:06:15;;;;;;;11.50;7.32;;;6.10;99.90;;;;;;6279865;28;20072;-79
2023/01/29 10:09:36;;;;;;;11.13;6.72;;;6.30;99.90;;;;;;6282698;28;20049;-79
2023/01/29 10:12:59;;;;;;;7.55;6.72;;;6.40;99.90;;;;;;6296747;28;20049;-80
2023/01/29 10:16:27;;;;;;;9.15;6.60;;;6.50;99.90;;;;;;6312078;28;20523;-80
2023/01/29 10:19:56;;;;;;;11.80;7.95;;;6.50;99.90;;;;;;6303766;28;20036;-79
2023/01/29 10:23:14;;;;;;;15.13;10.07;;;6.40;99.90;;;;;;6292675;28;20051;-78
2023/01/29 10:26:17;;;;;;;7.95;7.15;;;6.40;99.90;;;;;;6304615;28;20055;-79
2023/01/29 10:29:21;;;;;;;7.55;6.75;;;6.40;99.90;;;;;;6303404;28;20147;-79
2023/01/29 10:32:25;;;;;;;10.23;8.43;;;6.40;99.90;;;;;;6306025;28;20049;-80
2023/01/29 10:35:31;;;;;;;8.13;6.43;;;6.40;99.90;;;;;;6304954;28;20048;-78
2023/01/29 10:38:40;;;;;;;12.55;6.72;;;6.30;99.90;;;;;;6307869;28;20623;-79
2023/01/29 10:42:08;;;;;;;8.05;7.07;;;6.40;99.90;;;;;;6318074;28;20055;-79
2023/01/29 10:45:21;;;;;;;8.63;6.70;;;6.30;99.90;;;;;;6303819;28;20044;-80
2023/01/29 10:48:40;;;;;;;7.15;6.10;;;6.40;99.90;;;;;;6302985;28;20048;-79
2023/01/29 10:52:03;;;;;;;7.70;6.82;;;6.40;99.90;;;;;;6301301;28;20051;-80
2023/01/29 10:55:20;;;;;;;12.23;6.10;;;6.50;99.90;;;;;;6299888;28;20044;-80
2023/01/29 10:58:32;;;;;;;8.98;6.30;;;6.50;99.90;;;;;;6303785;28;20052;-80
2023/01/29 11:01:35;;;;;;;11.05;7.00;;;6.50;99.90;;;;;;6300360;28;20059;-80
2023/01/29 11:04:38;;;;;;;13.40;11.13;;;6.60;99.90;;;;;;6300696;28;20044;-80
2023/01/29 11:07:39;;;;;;;7.15;5.82;;;6.80;99.90;;;;;;6299188;28;20048;-81
2023/01/29 11:10:48;;;;;;;23.48;8.50;;;7.10;99.90;;;;;;6300350;28;20045;-81
2023/01/29 11:13:56;;;;;;;9.02;5.70;;;7.10;99.90;;;;;;6299802;28;20052;-81
2023/01/29 11:16:59;;;;;;;7.57;6.17;;;6.90;99.90;;;;;;6299549;28;20048;-81
2023/01/29 11:20:01;;;;;;;12.38;6.30;;;6.70;99.90;;;;;;6299723;28;20044;-80
2023/01/29 11:23:02;;;;;;;12.88;7.85;;;6.70;99.90;;;;;;6299305;28;20040;-80
2023/01/29 11:26:05;;;;;;;6.57;4.45;;;6.50;99.90;;;;;;6300342;28;20060;-81
2023/01/29 11:29:33;;;;;;;8.10;6.03;;;6.50;99.90;;;;;;6299565;28;20048;-80
2023/01/29 11:32:36;;;;;;;10.32;5.35;;;6.50;99.90;;;;;;6302642;28;20049;-80
2023/01/29 11:35:38;;;;;;;15.65;8.27;;;6.50;99.90;;;;;;6301811;28;20041;-80
2023/01/29 11:38:40;;;;;;;8.25;5.90;;;6.80;99.90;;;;;;6300169;28;20048;-81
2023/01/29 11:41:48;;;;;;;7.35;6.30;;;7.00;99.90;;;;;;6303504;28;20044;-81
2023/01/29 11:44:50;;;;;;;6.57;5.28;;;7.10;99.90;;;;;;6301402;28;20056;-81
2023/01/29 11:47:55;;;;;;;5.82;5.05;;;7.20;99.90;;;;;;6303734;28;20063;-80
2023/01/29 11:51:00;;;;;;;7.32;5.03;;;7.60;99.90;;;;;;6302605;28;20044;-80
2023/01/29 11:54:04;;;;;;;6.13;5.20;;;7.90;99.80;;;;;;6300538;28;20064;-82
2023/01/29 11:57:13;;;;;;;9.30;6.80;;;8.10;99.20;;;;;;6299749;28;20041;-81
2023/01/29 12:00:21;;;;;;;6.60;5.40;;;8.20;98.90;;;;;;6298921;28;20401;-81
2023/01/29 12:03:33;;;;;;;6.40;5.35;;;8.30;98.50;;;;;;6299151;28;20146;-80
2023/01/29 12:06:40;;;;;;;7.25;4.93;;;8.50;98.30;;;;;;6299450;28;20546;-80
2023/01/29 12:09:49;;;;;;;7.17;5.73;;;8.60;97.90;;;;;;6299046;28;20056;-80
2023/01/29 12:12:51;;;;;;;6.35;5.43;;;8.50;97.60;;;;;;6275270;28;20048;-80
2023/01/29 12:16:13;;;;;;;8.02;5.72;;;8.80;98.00;;;;;;6274626;28;20045;-80
2023/01/29 12:19:26;;;;;;;5.88;5.28;;;9.30;97.10;;;;;;6273744;28;20500;-81
2023/01/29 12:22:38;;;;;;;6.80;4.97;;;9.80;96.80;;;;;;6274491;28;20489;-81
2023/01/29 12:25:48;;;;;;;6.75;5.82;;;10.30;95.70;;;;;;6275259;28;20056;-81
2023/01/29 12:29:02;;;;;;;7.88;5.40;;;10.20;95.50;;;;;;6274734;28;20056;-80
2023/01/29 12:32:11;;;;;;;7.03;6.03;;;10.60;94.40;;;;;;6279236;28;20053;-81
2023/01/29 12:35:20;;;;;;;13.52;11.05;;;10.40;93.90;;;;;;6279115;28;20543;-81
2023/01/29 12:38:24;;;;;;;12.30;11.10;;;10.60;93.60;;;;;;6279504;28;20045;-81
2023/01/29 12:41:32;;;;;;;10.05;9.05;;;10.20;92.80;;;;;;6278782;28;20060;-80
2023/01/29 12:44:35;;;;;;;;;;;10.10;93.00;;;;;;6279040;28;20424;-80
2023/01/29 12:47:42;;;;;;;5.28;4.55;;;10.50;92.70;;;;;;6278308;28;19925;-80
2023/01/29 12:50:46;;;;;;;5.93;4.28;;;10.00;92.00;;;;;;6278407;28;20063;-81
2023/01/29 12:53:52;;;;;;;7.07;4.00;;;9.70;92.10;;;;;;6280132;28;20114;-81
2023/01/29 12:56:58;;;;;;;6.10;5.28;;;10.00;92.30;;;;;;6278261;28;20424;-81
2023/01/29 13:00:05;;;;;;;5.13;4.53;;;10.50;91.60;;;;;;6274752;28;20048;-81
2023/01/29 13:03:17;;;;;;;5.60;5.03;;;10.70;91.10;;;;;;6288434;28;20428;-81
2023/01/29 13:06:26;;;;;;;16.45;11.48;;;10.80;90.80;;;;;;6272596;28;20158;-81
2023/01/29 13:09:32;;;;;;;8.98;7.57;;;11.10;90.60;;;;;;6277045;28;20049;-82
2023/01/29 13:12:34;;;;;;;11.88;8.73;;;11.30;90.40;;;;;;6293959;28;20049;-82
2023/01/29 13:15:39;;;;;;;8.95;8.05;;;11.70;89.80;;;;;;6280229;28;20120;-81
2023/01/29 13:18:45;;;;;;;9.60;8.70;;;11.90;88.20;;;;;;6278864;28;20052;-82
2023/01/29 13:21:48;;;;;;;6.68;5.97;;;11.50;87.00;;;;;;6279731;28;20048;-82
2023/01/29 13:24:51;;;;;;;6.65;5.70;;;11.50;86.50;;;;;;6280618;28;20123;-82
2023/01/29 13:27:53;;;;;;;12.10;6.90;;;11.40;85.40;;;;;;6282154;28;20072;-82
2023/01/29 13:31:20;;;;;;;5.80;4.53;;;11.00;85.60;;;;;;6287670;28;20041;-82
2023/01/29 13:34:24;;;;;;;5.88;5.28;;;10.80;84.90;;;;;;6294574;28;20048;-82
2023/01/29 13:37:33;;;;;;;5.30;4.80;;;10.70;85.80;;;;;;6292467;28;20049;-82
2023/01/29 13:40:37;;;;;;;5.05;4.55;;;10.80;85.40;;;;;;6280567;28;20124;-82
2023/01/29 13:43:41;;;;;;;5.03;3.92;;;10.70;85.00;;;;;;6280052;28;20412;-83
2023/01/29 13:46:49;;;;;;;5.28;4.80;;;10.60;84.40;;;;;;6286893;28;20053;-83
2023/01/29 13:49:57;;;;;;;6.13;5.53;;;10.50;84.40;;;;;;6277843;28;20519;-81
2023/01/29 13:53:02;;;;;;;8.50;6.65;;;10.20;83.60;;;;;;6278303;28;20393;-81
2023/01/29 13:56:42;;;;;;;6.30;5.68;;;9.90;84.30;;;;;;6276627;28;20409;-81
2023/01/29 13:59:51;;;;;;;4.18;3.78;;;9.80;84.00;;;;;;6277449;28;20048;-82
2023/01/29 14:03:26;;;;;;;6.82;5.35;;;9.60;84.70;;;;;;6291295;28;20050;-82
2023/01/29 14:06:50;;;;;;;7.65;5.60;;;9.30;84.40;;;;;;6281055;28;20056;-83
2023/01/29 14:10:09;;;;;;;6.95;4.80;;;8.90;85.10;;;;;;6275596;28;20064;-82
2023/01/29 14:13:28;;;;;;;6.53;5.72;;;8.60;85.20;;;;;;6280101;28;20049;-81
2023/01/29 14:16:36;;;;;;;6.68;4.70;;;8.40;85.70;;;;;;6276204;28;20045;-83
2023/01/29 14:19:37;;;;;;;6.97;5.50;;;8.20;85.40;;;;;;6275477;28;20055;-83
2023/01/29 14:22:40;;;;;;;6.53;5.68;;;8.10;85.90;;;;;;6276442;28;20515;-84
2023/01/29 14:25:44;;;;;;;9.52;6.22;;;8.40;86.40;;;;;;6277605;28;20053;-82
2023/01/29 14:28:54;;;;;;;6.63;5.82;;;8.70;85.90;;;;;;6275248;28;20056;-82
2023/01/29 14:32:00;;;;;;;10.15;6.80;;;9.00;85.30;;;;;;6284145;28;20037;-82
2023/01/29 14:35:03;;;;;;;8.88;5.90;;;9.30;85.30;;;;;;6299544;28;20045;-82
2023/01/29 14:38:07;;;;;;;7.70;4.75;;;9.60;85.30;;;;;;6301107;28;20045;-81
2023/01/29 14:41:25;;;;;;;6.95;5.82;;;9.20;84.10;;;;;;6300418;28;20147;-81
2023/01/29 14:45:04;;;;;;;5.28;4.78;;;9.00;85.30;;;;;;6300815;28;20048;-82
2023/01/29 14:48:37;;;;;;;5.75;5.07;;;8.90;85.20;;;;;;6300148;28;20045;-80
2023/01/29 14:51:44;;;;;;;5.35;4.15;;;8.50;84.70;;;;;;6300950;28;20559;-81
2023/01/29 14:54:48;;;;;;;6.13;4.95;;;8.30;85.80;;;;;;6300032;28;20055;-80
2023/01/29 14:57:52;;;;;;;9.63;6.18;;;8.00;85.80;;;;;;6302030;28;20048;-80
2023/01/29 15:00:57;;;;;;;9.15;5.57;;;7.60;86.30;;;;;;6297991;28;20037;-81
2023/01/29 15:04:02;;;;;;;6.93;5.70;;;7.50;86.80;;;;;;6293296;28;20434;-82
2023/01/29 15:07:14;;;;;;;12.43;10.82;;;7.60;87.30;;;;;;6304434;28;20485;-81
2023/01/29 15:10:19;;;;;;;8.10;6.00;;;7.70;87.20;;;;;;6293410;28;20048;-81
2023/01/29 15:13:32;;;;;;;7.35;5.90;;;7.60;87.00;;;;;;6279744;28;20047;-81
2023/01/29 15:16:45;;;;;;;8.85;5.53;;;7.60;87.30;;;;;;6253423;28;20143;-82
2023/01/29 15:19:48;;;;;;;8.70;6.82;;;7.50;87.80;;;;;;6253122;28;20045;-82
2023/01/29 15:22:50;;;;;;;8.27;6.18;;;7.40;87.90;;;;;;6254222;28;20124;-82
2023/01/29 15:25:54;;;;;;;8.48;5.88;;;7.00;87.80;;;;;;6255385;28;20045;-81
2023/01/29 15:28:59;;;;;;;7.40;5.70;;;6.80;88.60;;;;;;6254863;28;20053;-82
2023/01/29 15:32:02;;;;;;;7.50;5.75;;;7.00;89.20;;;;;;6279980;28;20045;-83
2023/01/29 15:35:11;;;;;;;7.75;6.32;;;6.90;88.90;;;;;;6301888;28;20449;-84
2023/01/29 15:38:18;;;;;;;8.48;5.63;;;6.90;88.50;;;;;;6303092;28;20052;-81
2023/01/29 15:41:22;;;;;;;10.37;6.83;;;6.40;88.80;;;;;;6301518;28;20049;-81
2023/01/29 15:44:25;;;;;;;9.38;7.20;;;6.00;89.80;;;;;;6303355;28;20390;-82
2023/01/29 15:47:31;;;;;;;9.38;7.80;;;5.70;90.30;;;;;;6302234;28;20048;-82
2023/01/29 15:50:36;;;;;;;8.60;6.85;;;5.50;90.70;;;;;;6298291;28;20393;-82
2023/01/29 15:53:42;;;;;;;7.70;6.75;;;5.10;90.80;;;;;;6300370;28;20045;-80
2023/01/29 15:56:48;;;;;;;10.85;8.15;;;4.80;91.20;;;;;;6300846;28;20045;-80
2023/01/29 15:59:53;;;;;;;12.43;8.20;;;4.60;91.40;;;;;;6301361;28;20040;-81
2023/01/29 16:02:55;;;;;;;14.07;10.20;;;4.40;91.70;;;;;;6290795;28;20048;-82
2023/01/29 16:05:57;;;;;;;11.60;8.07;;;4.20;91.80;;;;;;6308904;28;20052;-81
2023/01/29 16:08:59;;;;;;;8.68;7.50;;;4.00;92.10;;;;;;6307176;28;20492;-81
2023/01/29 16:12:01;;;;;;;10.73;8.57;;;3.80;92.30;;;;;;6302429;28;20044;-82
2023/01/29 16:15:06;;;;;;;12.75;9.55;;;3.60;92.50;;;;;;6283295;28;20128;-80
2023/01/29 16:18:21;;;;;;;14.98;8.85;;;3.50;92.70;;;;;;6282999;28;20056;-82
2023/01/29 16:21:28;;;;;;;12.93;8.50;;;3.30;93.00;;;;;;6288546;28;20059;-81
2023/01/29 16:24:32;;;;;;;13.38;8.07;;;3.10;93.10;;;;;;6285648;28;20504;-80
2023/01/29 16:27:34;;;;;;;19.23;10.25;;;3.00;93.30;;;;;;6295065;28;20048;-80
2023/01/29 16:30:38;;;;;;;11.98;8.30;;;2.80;93.50;;;;;;6287588;28;20044;-80
2023/01/29 16:33:44;;;;;;;13.00;8.57;;;2.70;93.70;;;;;;6284115;28;20037;-80
2023/01/29 16:36:47;;;;;;;14.93;10.25;;;2.60;94.20;;;;;;6284039;28;20684;-80